sensor_id;sensor_type;location;lat;lon;timestamp;pressure;altitude;pressure_sealevel;temperature
66180;BMP280;52986;44.028;20.466;2023-04-06T00:01:33;98186.25;;;1.52
66180;BMP280;52986;44.028;20.466;2023-04-06T00:03:59;98186.59;;;1.51
66180;BMP280;52986;44.028;20.466;2023-04-06T00:06:25;98189.22;;;1.47
66180;BMP280;52986;44.028;20.466;2023-04-06T00:08:52;98177.91;;;1.47
66180;BMP280;52986;44.028;20.466;2023-04-06T00:11:17;98178.66;;;1.47
66180;BMP280;52986;44.028;20.466;2023-04-06T00:13:42;98181.28;;;1.47
66180;BMP280;52986;44.028;20.466;2023-04-06T00:16:08;98168.84;;;1.48
66180;BMP280;52986;44.028;20.466;2023-04-06T00:18:33;98168.47;;;1.46
66180;BMP280;52986;44.028;20.466;2023-04-06T00:20:59;98172.63;;;1.50
66180;BMP280;52986;44.028;20.466;2023-04-06T00:23:24;98168.09;;;1.47
66180;BMP280;52986;44.028;20.466;2023-04-06T00:25:50;98161.31;;;1.50
66180;BMP280;52986;44.028;20.466;2023-04-06T00:28:15;98162.06;;;1.50
66180;BMP280;52986;44.028;20.466;2023-04-06T00:30:41;98166.59;;;1.46
66180;BMP280;52986;44.028;20.466;2023-04-06T00:33:06;98160.56;;;1.46
66180;BMP280;52986;44.028;20.466;2023-04-06T00:35:32;98159.78;;;1.45
66180;BMP280;52986;44.028;20.466;2023-04-06T00:37:57;98153.72;;;1.45
66180;BMP280;52986;44.028;20.466;2023-04-06T00:40:23;98157.13;;;1.45
66180;BMP280;52986;44.028;20.466;2023-04-06T00:42:49;98156.00;;;1.43
66180;BMP280;52986;44.028;20.466;2023-04-06T00:45:15;98155.28;;;1.46
66180;BMP280;52986;44.028;20.466;2023-04-06T00:47:40;98156.75;;;1.43
66180;BMP280;52986;44.028;20.466;2023-04-06T00:50:06;98159.41;;;1.47
66180;BMP280;52986;44.028;20.466;2023-04-06T00:52:33;98149.19;;;1.42
66180;BMP280;52986;44.028;20.466;2023-04-06T00:54:58;98143.94;;;1.42
66180;BMP280;52986;44.028;20.466;2023-04-06T00:57:24;98143.16;;;1.41
66180;BMP280;52986;44.028;20.466;2023-04-06T00:59:49;98139.03;;;1.40
66180;BMP280;52986;44.028;20.466;2023-04-06T01:02:15;98141.28;;;1.42
66180;BMP280;52986;44.028;20.466;2023-04-06T01:04:40;98137.13;;;1.41
66180;BMP280;52986;44.028;20.466;2023-04-06T01:07:06;98133.00;;;1.40
66180;BMP280;52986;44.028;20.466;2023-04-06T01:09:31;98132.19;;;1.35
66180;BMP280;52986;44.028;20.466;2023-04-06T01:11:58;98134.47;;;1.37
66180;BMP280;52986;44.028;20.466;2023-04-06T01:14:24;98132.94;;;1.36
66180;BMP280;52986;44.028;20.466;2023-04-06T01:16:50;98137.84;;;1.38
66180;BMP280;52986;44.028;20.466;2023-04-06T01:19:16;98127.66;;;1.36
66180;BMP280;52986;44.028;20.466;2023-04-06T01:21:42;98132.63;;;1.41
66180;BMP280;52986;44.028;20.466;2023-04-06T01:24:08;98128.81;;;1.35
66180;BMP280;52986;44.028;20.466;2023-04-06T01:26:34;98127.66;;;1.36
66180;BMP280;52986;44.028;20.466;2023-04-06T01:29:00;98128.81;;;1.35
66180;BMP280;52986;44.028;20.466;2023-04-06T01:31:27;98112.97;;;1.31
66180;BMP280;52986;44.028;20.466;2023-04-06T01:33:52;98113.34;;;1.30
66180;BMP280;52986;44.028;20.466;2023-04-06T01:36:18;98116.72;;;1.30
66180;BMP280;52986;44.028;20.466;2023-04-06T01:38:43;98109.19;;;1.29
66180;BMP280;52986;44.028;20.466;2023-04-06T01:41:09;98108.84;;;1.34
66180;BMP280;52986;44.028;20.466;2023-04-06T01:43:35;98099.78;;;1.31
66180;BMP280;52986;44.028;20.466;2023-04-06T01:46:01;98097.88;;;1.32
66180;BMP280;52986;44.028;20.466;2023-04-06T01:48:27;98097.53;;;1.33
66180;BMP280;52986;44.028;20.466;2023-04-06T01:50:53;98084.34;;;1.33
66180;BMP280;52986;44.028;20.466;2023-04-06T01:53:18;98092.59;;;1.32
66180;BMP280;52986;44.028;20.466;2023-04-06T01:55:44;98089.59;;;1.37
66180;BMP280;52986;44.028;20.466;2023-04-06T01:58:10;98089.97;;;1.39
66180;BMP280;52986;44.028;20.466;2023-04-06T02:00:36;98088.88;;;1.40
66180;BMP280;52986;44.028;20.466;2023-04-06T02:03:01;98078.75;;;1.46
66180;BMP280;52986;44.028;20.466;2023-04-06T02:05:30;98075.31;;;1.42
66180;BMP280;52986;44.028;20.466;2023-04-06T02:07:56;98077.19;;;1.34
66180;BMP280;52986;44.028;20.466;2023-04-06T02:10:22;98081.31;;;1.35
66180;BMP280;52986;44.028;20.466;2023-04-06T02:12:47;98073.78;;;1.37
66180;BMP280;52986;44.028;20.466;2023-04-06T02:15:13;98076.03;;;1.39
66180;BMP280;52986;44.028;20.466;2023-04-06T02:17:39;98067.41;;;1.45
66180;BMP280;52986;44.028;20.466;2023-04-06T02:20:05;98080.97;;;1.40
66180;BMP280;52986;44.028;20.466;2023-04-06T02:22:31;98070.03;;;1.45
66180;BMP280;52986;44.028;20.466;2023-04-06T02:24:56;98071.94;;;1.45
66180;BMP280;52986;44.028;20.466;2023-04-06T02:27:21;98064.75;;;1.42
66180;BMP280;52986;44.028;20.466;2023-04-06T02:29:47;98073.78;;;1.37
66180;BMP280;52986;44.028;20.466;2023-04-06T02:32:12;98065.91;;;1.41
66180;BMP280;52986;44.028;20.466;2023-04-06T02:34:38;98070.03;;;1.45
66180;BMP280;52986;44.028;20.466;2023-04-06T02:37:03;98064.00;;;1.45
66180;BMP280;52986;44.028;20.466;2023-04-06T02:39:28;98070.81;;;1.46
66180;BMP280;52986;44.028;20.466;2023-04-06T02:41:54;98071.19;;;1.44
66180;BMP280;52986;44.028;20.466;2023-04-06T02:44:21;98070.81;;;1.46
66180;BMP280;52986;44.028;20.466;2023-04-06T02:46:46;98062.50;;;1.44
66180;BMP280;52986;44.028;20.466;2023-04-06T02:49:11;98069.25;;;1.38
66180;BMP280;52986;44.028;20.466;2023-04-06T02:51:37;98063.25;;;1.44
66180;BMP280;52986;44.028;20.466;2023-04-06T02:54:02;98070.81;;;1.46
66180;BMP280;52986;44.028;20.466;2023-04-06T02:56:28;98067.06;;;1.47
66180;BMP280;52986;44.028;20.466;2023-04-06T02:58:53;98068.56;;;1.48
66180;BMP280;52986;44.028;20.466;2023-04-06T03:01:19;98067.06;;;1.50
66180;BMP280;52986;44.028;20.466;2023-04-06T03:03:44;98070.13;;;1.52
66180;BMP280;52986;44.028;20.466;2023-04-06T03:06:10;98070.88;;;1.56
66180;BMP280;52986;44.028;20.466;2023-04-06T03:08:35;98066.34;;;1.57
66180;BMP280;52986;44.028;20.466;2023-04-06T03:11:01;98073.91;;;1.58
66180;BMP280;52986;44.028;20.466;2023-04-06T03:13:26;98071.63;;;1.53
66180;BMP280;52986;44.028;20.466;2023-04-06T03:15:51;98072.75;;;1.52
66180;BMP280;52986;44.028;20.466;2023-04-06T03:18:21;98070.41;;;1.44
66180;BMP280;52986;44.028;20.466;2023-04-06T03:20:48;98065.91;;;1.44
66180;BMP280;52986;44.028;20.466;2023-04-06T03:23:13;98070.03;;;1.42
66180;BMP280;52986;44.028;20.466;2023-04-06T03:25:39;98070.41;;;1.40
66180;BMP280;52986;44.028;20.466;2023-04-06T03:28:07;98074.94;;;1.43
66180;BMP280;52986;44.028;20.466;2023-04-06T03:30:33;98076.03;;;1.31
66180;BMP280;52986;44.028;20.466;2023-04-06T03:32:58;98073.38;;;1.35
66180;BMP280;52986;44.028;20.466;2023-04-06T03:35:24;98067.34;;;1.34
66180;BMP280;52986;44.028;20.466;2023-04-06T03:37:49;98069.63;;;1.36
66180;BMP280;52986;44.028;20.466;2023-04-06T03:40:15;98071.50;;;1.35
66180;BMP280;52986;44.028;20.466;2023-04-06T03:42:41;98070.00;;;1.38
66180;BMP280;52986;44.028;20.466;2023-04-06T03:45:07;98074.16;;;1.39
66180;BMP280;52986;44.028;20.466;2023-04-06T03:47:32;98072.31;;;1.43
66180;BMP280;52986;44.028;20.466;2023-04-06T03:49:57;98064.78;;;1.45
66180;BMP280;52986;44.028;20.466;2023-04-06T03:52:23;98070.84;;;1.49
66180;BMP280;52986;44.028;20.466;2023-04-06T03:54:48;98068.94;;;1.50
66180;BMP280;52986;44.028;20.466;2023-04-06T03:57:14;98074.63;;;1.52
66180;BMP280;52986;44.028;20.466;2023-04-06T03:59:40;98074.22;;;1.50
66180;BMP280;52986;44.028;20.466;2023-04-06T04:02:05;98069.75;;;1.54
66180;BMP280;52986;44.028;20.466;2023-04-06T04:04:31;98075.00;;;1.54
66180;BMP280;52986;44.028;20.466;2023-04-06T04:06:56;98068.22;;;1.53
66180;BMP280;52986;44.028;20.466;2023-04-06T04:09:22;98073.13;;;1.54
66180;BMP280;52986;44.028;20.466;2023-04-06T04:11:47;98079.16;;;1.55
66180;BMP280;52986;44.028;20.466;2023-04-06T04:14:12;98079.13;;;1.51
66180;BMP280;52986;44.028;20.466;2023-04-06T04:16:38;98076.13;;;1.49
66180;BMP280;52986;44.028;20.466;2023-04-06T04:19:04;98079.88;;;1.48
66180;BMP280;52986;44.028;20.466;2023-04-06T04:21:31;98070.03;;;1.45
66180;BMP280;52986;44.028;20.466;2023-04-06T04:23:56;98074.22;;;1.46
66180;BMP280;52986;44.028;20.466;2023-04-06T04:26:22;98074.94;;;1.43
66180;BMP280;52986;44.028;20.466;2023-04-06T04:28:47;98074.59;;;1.48
66180;BMP280;52986;44.028;20.466;2023-04-06T04:31:13;98076.50;;;1.48
66180;BMP280;52986;44.028;20.466;2023-04-06T04:33:38;98076.50;;;1.51
66180;BMP280;52986;44.028;20.466;2023-04-06T04:36:04;98075.38;;;1.52
66180;BMP280;52986;44.028;20.466;2023-04-06T04:38:30;98080.66;;;1.56
66180;BMP280;52986;44.028;20.466;2023-04-06T04:40:55;98081.47;;;1.60
66180;BMP280;52986;44.028;20.466;2023-04-06T04:43:20;98079.97;;;1.59
66180;BMP280;52986;44.028;20.466;2023-04-06T04:45:46;98078.81;;;1.63
66180;BMP280;52986;44.028;20.466;2023-04-06T04:48:11;98082.28;;;1.71
66180;BMP280;52986;44.028;20.466;2023-04-06T04:50:37;98086.81;;;1.71
66180;BMP280;52986;44.028;20.466;2023-04-06T04:53:02;98083.41;;;1.74
66180;BMP280;52986;44.028;20.466;2023-04-06T04:55:30;98084.56;;;1.76
66180;BMP280;52986;44.028;20.466;2023-04-06T04:57:56;98086.09;;;1.77
66180;BMP280;52986;44.028;20.466;2023-04-06T05:00:21;98088.34;;;1.79
66180;BMP280;52986;44.028;20.466;2023-04-06T05:02:47;98081.56;;;1.81
66180;BMP280;52986;44.028;20.466;2023-04-06T05:05:12;98083.81;;;1.79
66180;BMP280;52986;44.028;20.466;2023-04-06T05:07:37;98086.44;;;1.76
66180;BMP280;52986;44.028;20.466;2023-04-06T05:10:03;98078.91;;;1.78
66180;BMP280;52986;44.028;20.466;2023-04-06T05:12:29;98086.88;;;1.85
66180;BMP280;52986;44.028;20.466;2023-04-06T05:14:54;98081.59;;;1.88
66180;BMP280;52986;44.028;20.466;2023-04-06T05:17:20;98085.38;;;1.84
66180;BMP280;52986;44.028;20.466;2023-04-06T05:19:45;98083.09;;;1.86
66180;BMP280;52986;44.028;20.466;2023-04-06T05:22:11;98080.47;;;1.93
66180;BMP280;52986;44.028;20.466;2023-04-06T05:24:39;98084.63;;;1.94
66180;BMP280;52986;44.028;20.466;2023-04-06T05:27:05;98083.16;;;2.00
66180;BMP280;52986;44.028;20.466;2023-04-06T05:29:30;98077.88;;;2.00
66180;BMP280;52986;44.028;20.466;2023-04-06T05:31:56;98075.59;;;2.02
66180;BMP280;52986;44.028;20.466;2023-04-06T05:34:21;98075.59;;;2.06
66180;BMP280;52986;44.028;20.466;2023-04-06T05:36:47;98076.75;;;2.08
66180;BMP280;52986;44.028;20.466;2023-04-06T05:39:12;98069.97;;;2.07
66180;BMP280;52986;44.028;20.466;2023-04-06T05:41:38;98077.19;;;2.21
66180;BMP280;52986;44.028;20.466;2023-04-06T05:44:03;98068.16;;;2.29
66180;BMP280;52986;44.028;20.466;2023-04-06T05:46:29;98065.88;;;2.35
66180;BMP280;52986;44.028;20.466;2023-04-06T05:48:54;98072.69;;;2.39
66180;BMP280;52986;44.028;20.466;2023-04-06T05:51:20;98071.91;;;2.32
66180;BMP280;52986;44.028;20.466;2023-04-06T05:53:46;98076.09;;;2.40
66180;BMP280;52986;44.028;20.466;2023-04-06T05:56:11;98069.66;;;2.34
66180;BMP280;52986;44.028;20.466;2023-04-06T05:58:36;98062.09;;;2.32
66180;BMP280;52986;44.028;20.466;2023-04-06T06:01:02;98063.25;;;2.28
66180;BMP280;52986;44.028;20.466;2023-04-06T06:03:29;98066.66;;;2.25
66180;BMP280;52986;44.028;20.466;2023-04-06T06:06:02;98068.13;;;2.36
66180;BMP280;52986;44.028;20.466;2023-04-06T06:08:28;98063.28;;;2.49
66180;BMP280;52986;44.028;20.466;2023-04-06T06:10:54;98065.16;;;2.45
66180;BMP280;52986;44.028;20.466;2023-04-06T06:13:20;98058.38;;;2.58
66180;BMP280;52986;44.028;20.466;2023-04-06T06:15:46;98062.91;;;2.61
66180;BMP280;52986;44.028;20.466;2023-04-06T06:18:11;98064.03;;;2.74
66180;BMP280;52986;44.028;20.466;2023-04-06T06:20:37;98057.22;;;2.66
66180;BMP280;52986;44.028;20.466;2023-04-06T06:23:02;98061.41;;;2.64
66180;BMP280;52986;44.028;20.466;2023-04-06T06:25:30;98053.84;;;2.80
66180;BMP280;52986;44.028;20.466;2023-04-06T06:27:56;98059.88;;;2.81
66180;BMP280;52986;44.028;20.466;2023-04-06T06:30:22;98067.41;;;2.79
66180;BMP280;52986;44.028;20.466;2023-04-06T06:32:47;98057.63;;;2.90
66180;BMP280;52986;44.028;20.466;2023-04-06T06:35:13;98061.34;;;3.03
66180;BMP280;52986;44.028;20.466;2023-04-06T06:37:38;98060.63;;;3.17
66180;BMP280;52986;44.028;20.466;2023-04-06T06:40:04;98062.84;;;3.29
66180;BMP280;52986;44.028;20.466;2023-04-06T06:42:30;98064.72;;;3.36
66180;BMP280;52986;44.028;20.466;2023-04-06T06:44:55;98063.56;;;3.44
66180;BMP280;52986;44.028;20.466;2023-04-06T06:47:21;98060.09;;;3.57
66180;BMP280;52986;44.028;20.466;2023-04-06T06:49:46;98066.91;;;3.66
66180;BMP280;52986;44.028;20.466;2023-04-06T06:52:12;98063.88;;;3.71
66180;BMP280;52986;44.028;20.466;2023-04-06T06:54:37;98069.47;;;3.87
66180;BMP280;52986;44.028;20.466;2023-04-06T06:57:02;98064.84;;;4.02
66180;BMP280;52986;44.028;20.466;2023-04-06T06:59:28;98072.81;;;4.02
66180;BMP280;52986;44.028;20.466;2023-04-06T07:01:53;98069.25;;;4.26
66180;BMP280;52986;44.028;20.466;2023-04-06T07:04:19;98069.50;;;4.42
66180;BMP280;52986;44.028;20.466;2023-04-06T07:06:44;98067.63;;;4.43
66180;BMP280;52986;44.028;20.466;2023-04-06T07:09:09;98072.03;;;4.64
66180;BMP280;52986;44.028;20.466;2023-04-06T07:11:44;98074.31;;;4.62
66180;BMP280;52986;44.028;20.466;2023-04-06T07:14:10;98069.22;;;4.82
66180;BMP280;52986;44.028;20.466;2023-04-06T07:16:36;98063.19;;;4.78
66180;BMP280;52986;44.028;20.466;2023-04-06T07:19:02;98063.53;;;4.83
66180;BMP280;52986;44.028;20.466;2023-04-06T07:21:27;98055.88;;;4.92
66180;BMP280;52986;44.028;20.466;2023-04-06T07:23:56;98053.50;;;5.02
66180;BMP280;52986;44.028;20.466;2023-04-06T07:26:24;98061.63;;;5.25
66180;BMP280;52986;44.028;20.466;2023-04-06T07:28:49;98063.03;;;5.33
66180;BMP280;52986;44.028;20.466;2023-04-06T07:31:15;98059.59;;;5.36
66180;BMP280;52986;44.028;20.466;2023-04-06T07:33:58;98059.91;;;5.42
66180;BMP280;52986;44.028;20.466;2023-04-06T07:36:26;98052.53;;;5.56
66180;BMP280;52986;44.028;20.466;2023-04-06T07:38:55;98052.72;;;5.73
66180;BMP280;52986;44.028;20.466;2023-04-06T07:41:20;98045.69;;;5.86
66180;BMP280;52986;44.028;20.466;2023-04-06T07:43:53;98048.00;;;5.84
66180;BMP280;52986;44.028;20.466;2023-04-06T07:46:18;98055.94;;;6.14
66180;BMP280;52986;44.028;20.466;2023-04-06T07:48:44;98051.00;;;5.86
66180;BMP280;52986;44.028;20.466;2023-04-06T07:51:09;98049.91;;;6.10
66180;BMP280;52986;44.028;20.466;2023-04-06T07:53:39;98052.16;;;6.39
66180;BMP280;52986;44.028;20.466;2023-04-06T07:56:14;98046.41;;;6.40
66180;BMP280;52986;44.028;20.466;2023-04-06T07:58:40;98050.41;;;6.52
66180;BMP280;52986;44.028;20.466;2023-04-06T08:01:17;98047.00;;;6.75
66180;BMP280;52986;44.028;20.466;2023-04-06T08:07:12;98045.88;;;7.16
66180;BMP280;52986;44.028;20.466;2023-04-06T08:09:38;98049.16;;;7.23
66180;BMP280;52986;44.028;20.466;2023-04-06T08:15:09;98044.78;;;7.33
66180;BMP280;52986;44.028;20.466;2023-04-06T08:17:43;98040.47;;;7.19
66180;BMP280;52986;44.028;20.466;2023-04-06T08:20:18;98042.75;;;7.21
66180;BMP280;52986;44.028;20.466;2023-04-06T08:22:44;98037.88;;;7.36
66180;BMP280;52986;44.028;20.466;2023-04-06T08:25:09;98043.53;;;7.38
66180;BMP280;52986;44.028;20.466;2023-04-06T08:27:35;98030.63;;;7.36
66180;BMP280;52986;44.028;20.466;2023-04-06T08:30:00;98033.25;;;7.40
66180;BMP280;52986;44.028;20.466;2023-04-06T08:32:26;98035.81;;;7.43
66180;BMP280;52986;44.028;20.466;2023-04-06T08:34:57;98043.38;;;7.65
66180;BMP280;52986;44.028;20.466;2023-04-06T08:37:23;98045.19;;;8.20
66180;BMP280;52986;44.028;20.466;2023-04-06T08:39:57;98045.78;;;8.44
66180;BMP280;52986;44.028;20.466;2023-04-06T08:42:56;98049.91;;;8.45
66180;BMP280;52986;44.028;20.466;2023-04-06T08:45:24;98040.22;;;8.67
66180;BMP280;52986;44.028;20.466;2023-04-06T08:47:50;98044.50;;;8.77
66180;BMP280;52986;44.028;20.466;2023-04-06T08:50:20;98045.41;;;8.74
66180;BMP280;52986;44.028;20.466;2023-04-06T08:52:49;98038.25;;;8.84
66180;BMP280;52986;44.028;20.466;2023-04-06T08:58:21;98028.47;;;9.48
66180;BMP280;52986;44.028;20.466;2023-04-06T09:00:48;98033.56;;;9.30
66180;BMP280;52986;44.028;20.466;2023-04-06T09:03:17;98031.78;;;9.52
66180;BMP280;52986;44.028;20.466;2023-04-06T09:05:44;98023.63;;;9.43
66180;BMP280;52986;44.028;20.466;2023-04-06T09:08:10;98017.75;;;9.86
66180;BMP280;52986;44.028;20.466;2023-04-06T09:10:41;98021.25;;;10.09
66180;BMP280;52986;44.028;20.466;2023-04-06T09:13:08;98021.34;;;10.52
66180;BMP280;52986;44.028;20.466;2023-04-06T09:15:36;98017.31;;;10.91
66180;BMP280;52986;44.028;20.466;2023-04-06T09:18:02;98016.88;;;10.71
66180;BMP280;52986;44.028;20.466;2023-04-06T09:20:30;98013.50;;;10.80
66180;BMP280;52986;44.028;20.466;2023-04-06T09:22:56;98016.50;;;11.13
66180;BMP280;52986;44.028;20.466;2023-04-06T09:25:22;98011.38;;;11.68
66180;BMP280;52986;44.028;20.466;2023-04-06T09:27:58;98010.50;;;11.80
66180;BMP280;52986;44.028;20.466;2023-04-06T09:30:27;98012.69;;;11.54
66180;BMP280;52986;44.028;20.466;2023-04-06T09:32:54;98013.44;;;11.54
66180;BMP280;52986;44.028;20.466;2023-04-06T09:35:34;98004.97;;;11.74
66180;BMP280;52986;44.028;20.466;2023-04-06T09:38:10;98006.97;;;12.01
66180;BMP280;52986;44.028;20.466;2023-04-06T09:40:56;98020.72;;;12.49
66180;BMP280;52986;44.028;20.466;2023-04-06T09:43:28;98011.66;;;13.40
66180;BMP280;52986;44.028;20.466;2023-04-06T09:45:55;98006.81;;;13.77
66180;BMP280;52986;44.028;20.466;2023-04-06T09:48:41;97999.00;;;13.88
66180;BMP280;52986;44.028;20.466;2023-04-06T09:51:11;98000.50;;;14.42
66180;BMP280;52986;44.028;20.466;2023-04-06T09:53:49;97996.44;;;14.23
66180;BMP280;52986;44.028;20.466;2023-04-06T09:56:23;97998.47;;;14.13
66180;BMP280;52986;44.028;20.466;2023-04-06T09:59:00;97996.63;;;14.20
66180;BMP280;52986;44.028;20.466;2023-04-06T10:01:33;97997.91;;;13.95
66180;BMP280;52986;44.028;20.466;2023-04-06T10:06:38;97993.56;;;13.40
66180;BMP280;52986;44.028;20.466;2023-04-06T10:09:04;98007.91;;;13.70
66180;BMP280;52986;44.028;20.466;2023-04-06T10:11:30;97991.00;;;14.76
66180;BMP280;52986;44.028;20.466;2023-04-06T10:13:56;97992.03;;;14.50
66180;BMP280;52986;44.028;20.466;2023-04-06T10:16:22;97991.34;;;13.87
66180;BMP280;52986;44.028;20.466;2023-04-06T10:18:53;97994.19;;;14.60
66180;BMP280;52986;44.028;20.466;2023-04-06T10:21:23;97986.75;;;14.02
66180;BMP280;52986;44.028;20.466;2023-04-06T10:23:52;97994.16;;;14.31
66180;BMP280;52986;44.028;20.466;2023-04-06T10:26:22;97994.06;;;14.69
66180;BMP280;52986;44.028;20.466;2023-04-06T10:28:48;97988.84;;;14.95
66180;BMP280;52986;44.028;20.466;2023-04-06T10:31:15;98004.38;;;15.35
66180;BMP280;52986;44.028;20.466;2023-04-06T10:33:41;98015.06;;;17.85
66180;BMP280;52986;44.028;20.466;2023-04-06T10:36:31;97978.22;;;19.40
66180;BMP280;52986;44.028;20.466;2023-04-06T10:39:04;98014.97;;;20.05
66180;BMP280;52986;44.028;20.466;2023-04-06T10:41:36;98014.13;;;21.80
66180;BMP280;52986;44.028;20.466;2023-04-06T10:44:01;98010.00;;;22.51
66180;BMP280;52986;44.028;20.466;2023-04-06T10:46:29;98005.41;;;22.59
66180;BMP280;52986;44.028;20.466;2023-04-06T10:48:55;97965.09;;;22.65
66180;BMP280;52986;44.028;20.466;2023-04-06T10:51:25;98008.91;;;19.76
66180;BMP280;52986;44.028;20.466;2023-04-06T10:53:52;98001.31;;;21.56
66180;BMP280;52986;44.028;20.466;2023-04-06T10:56:22;97989.97;;;22.61
66180;BMP280;52986;44.028;20.466;2023-04-06T10:58:48;97974.19;;;20.59
66180;BMP280;52986;44.028;20.466;2023-04-06T11:01:19;97953.16;;;19.06
66180;BMP280;52986;44.028;20.466;2023-04-06T11:03:45;97998.34;;;20.68
66180;BMP280;52986;44.028;20.466;2023-04-06T11:06:21;97974.31;;;20.48
66180;BMP280;52986;44.028;20.466;2023-04-06T11:08:47;97948.97;;;19.00
66180;BMP280;52986;44.028;20.466;2023-04-06T11:11:14;97955.31;;;16.92
66180;BMP280;52986;44.028;20.466;2023-04-06T11:13:57;97952.50;;;15.46
66180;BMP280;52986;44.028;20.466;2023-04-06T11:16:27;97945.66;;;14.31
66180;BMP280;52986;44.028;20.466;2023-04-06T11:21:20;97953.84;;;15.36
66180;BMP280;52986;44.028;20.466;2023-04-06T11:23:45;97972.50;;;17.26
66180;BMP280;52986;44.028;20.466;2023-04-06T11:26:14;97939.44;;;17.11
66180;BMP280;52986;44.028;20.466;2023-04-06T11:28:43;97955.03;;;15.96
66180;BMP280;52986;44.028;20.466;2023-04-06T11:31:09;97946.34;;;14.75
66180;BMP280;52986;44.028;20.466;2023-04-06T11:33:37;97947.66;;;14.21
66180;BMP280;52986;44.028;20.466;2023-04-06T11:36:03;97949.06;;;13.78
66180;BMP280;52986;44.028;20.466;2023-04-06T11:38:29;97949.63;;;15.15
66180;BMP280;52986;44.028;20.466;2023-04-06T11:40:58;97945.00;;;16.02
66180;BMP280;52986;44.028;20.466;2023-04-06T11:43:35;97948.78;;;14.59
66180;BMP280;52986;44.028;20.466;2023-04-06T11:46:02;97947.81;;;13.88
66180;BMP280;52986;44.028;20.466;2023-04-06T11:48:44;97944.22;;;13.43
66180;BMP280;52986;44.028;20.466;2023-04-06T11:51:10;97937.91;;;12.90
66180;BMP280;52986;44.028;20.466;2023-04-06T11:53:44;97940.88;;;12.04
66180;BMP280;52986;44.028;20.466;2023-04-06T11:56:11;97938.63;;;11.75
66180;BMP280;52986;44.028;20.466;2023-04-06T11:58:36;97942.63;;;11.61
66180;BMP280;52986;44.028;20.466;2023-04-06T12:01:08;97937.34;;;11.30
66180;BMP280;52986;44.028;20.466;2023-04-06T12:03:33;97930.03;;;11.31
66180;BMP280;52986;44.028;20.466;2023-04-06T12:05:58;97929.06;;;11.06
66180;BMP280;52986;44.028;20.466;2023-04-06T12:08:25;97934.31;;;11.19
66180;BMP280;52986;44.028;20.466;2023-04-06T12:10:56;97930.28;;;11.73
66180;BMP280;52986;44.028;20.466;2023-04-06T12:13:22;97928.22;;;12.04
66180;BMP280;52986;44.028;20.466;2023-04-06T12:15:47;97927.59;;;12.09
66180;BMP280;52986;44.028;20.466;2023-04-06T12:18:13;97924.75;;;11.67
66180;BMP280;52986;44.028;20.466;2023-04-06T12:20:38;97921.63;;;11.60
66180;BMP280;52986;44.028;20.466;2023-04-06T12:23:04;97912.88;;;11.19
66180;BMP280;52986;44.028;20.466;2023-04-06T12:25:29;97910.81;;;11.23
66180;BMP280;52986;44.028;20.466;2023-04-06T12:27:55;97912.88;;;11.19
66180;BMP280;52986;44.028;20.466;2023-04-06T12:30:21;97915.88;;;11.30
66180;BMP280;52986;44.028;20.466;2023-04-06T12:32:46;97913.13;;;11.61
66180;BMP280;52986;44.028;20.466;2023-04-06T12:35:12;97905.84;;;11.89
66180;BMP280;52986;44.028;20.466;2023-04-06T12:37:40;97905.06;;;12.34
66180;BMP280;52986;44.028;20.466;2023-04-06T12:40:06;97903.69;;;12.57
66180;BMP280;52986;44.028;20.466;2023-04-06T12:42:32;97909.31;;;12.59
66180;BMP280;52986;44.028;20.466;2023-04-06T12:44:57;97899.81;;;12.49
66180;BMP280;52986;44.028;20.466;2023-04-06T12:47:25;97901.63;;;12.43
66180;BMP280;52986;44.028;20.466;2023-04-06T12:49:51;97899.69;;;12.34
66180;BMP280;52986;44.028;20.466;2023-04-06T12:52:16;97901.19;;;12.26
66180;BMP280;52986;44.028;20.466;2023-04-06T12:54:42;97896.88;;;12.10
66180;BMP280;52986;44.028;20.466;2023-04-06T12:57:08;97894.75;;;12.24
66180;BMP280;52986;44.028;20.466;2023-04-06T12:59:33;97901.06;;;12.11
66180;BMP280;52986;44.028;20.466;2023-04-06T13:02:00;97892.72;;;11.82
66180;BMP280;52986;44.028;20.466;2023-04-06T13:04:26;97893.63;;;11.97
66180;BMP280;52986;44.028;20.466;2023-04-06T13:06:51;97895.25;;;11.95
66180;BMP280;52986;44.028;20.466;2023-04-06T13:09:17;97896.44;;;11.66
66180;BMP280;52986;44.028;20.466;2023-04-06T13:11:42;97884.91;;;11.29
66180;BMP280;52986;44.028;20.466;2023-04-06T13:14:07;97889.38;;;11.23
66180;BMP280;52986;44.028;20.466;2023-04-06T13:16:33;97890.59;;;11.40
66180;BMP280;52986;44.028;20.466;2023-04-06T13:18:58;97886.28;;;11.34
66180;BMP280;52986;44.028;20.466;2023-04-06T13:21:24;97891.50;;;11.55
66180;BMP280;52986;44.028;20.466;2023-04-06T13:23:50;97896.31;;;11.70
66180;BMP280;52986;44.028;20.466;2023-04-06T13:26:15;97891.84;;;11.85
66180;BMP280;52986;44.028;20.466;2023-04-06T13:28:42;97884.38;;;11.98
66180;BMP280;52986;44.028;20.466;2023-04-06T13:31:07;97889.59;;;11.93
66180;BMP280;52986;44.028;20.466;2023-04-06T13:33:33;97874.53;;;11.95
66180;BMP280;52986;44.028;20.466;2023-04-06T13:35:59;97875.59;;;11.70
66180;BMP280;52986;44.028;20.466;2023-04-06T13:38:25;97880.38;;;11.75
66180;BMP280;52986;44.028;20.466;2023-04-06T13:40:51;97870.81;;;11.93
66180;BMP280;52986;44.028;20.466;2023-04-06T13:43:16;97871.84;;;11.40
66180;BMP280;52986;44.028;20.466;2023-04-06T13:45:49;97866.16;;;11.38
66180;BMP280;52986;44.028;20.466;2023-04-06T13:48:15;97867.56;;;11.03
66180;BMP280;52986;44.028;20.466;2023-04-06T13:50:40;97875.56;;;10.93
66180;BMP280;52986;44.028;20.466;2023-04-06T13:53:05;97865.22;;;10.43
66180;BMP280;52986;44.028;20.466;2023-04-06T13:55:31;97868.53;;;10.25
66180;BMP280;52986;44.028;20.466;2023-04-06T13:57:56;97871.63;;;10.45
66180;BMP280;52986;44.028;20.466;2023-04-06T14:00:22;97863.59;;;10.45
66180;BMP280;52986;44.028;20.466;2023-04-06T14:02:47;97863.78;;;10.60
66180;BMP280;52986;44.028;20.466;2023-04-06T14:05:13;97862.81;;;10.67
66180;BMP280;52986;44.028;20.466;2023-04-06T14:07:38;97870.50;;;10.95
66180;BMP280;52986;44.028;20.466;2023-04-06T14:10:04;97865.19;;;11.05
66180;BMP280;52986;44.028;20.466;2023-04-06T14:12:30;97864.94;;;11.21
66180;BMP280;52986;44.028;20.466;2023-04-06T14:14:56;97849.69;;;11.00
66180;BMP280;52986;44.028;20.466;2023-04-06T14:17:22;97856.63;;;10.88